Time;durP1;ratioP1;P1;durP2;ratioP2;P2;SDS_P1;SDS_P2;PMS_P1;PMS_P2;Temp;Humidity;BMP_temperature;BMP_pressure;BME280_temperature;BME280_humidity;BME280_pressure;Samples;Min_cycle;Max_cycle;Signal;HPM_P1;HPM_P2
2022/07/26 00:00:12;;;;;;;11.40;2.67;;;18.50;99.90;;;;;;5046747;28;20142;-60
2022/07/26 00:02:39;;;;;;;11.07;2.50;;;18.50;99.90;;;;;;5045901;28;20439;-60
2022/07/26 00:05:05;;;;;;;11.57;2.85;;;18.50;99.90;;;;;;5046236;28;20491;-60
2022/07/26 00:07:31;;;;;;;7.95;2.63;;;18.60;99.90;;;;;;5046676;28;20045;-60
2022/07/26 00:09:56;;;;;;;7.47;2.33;;;18.60;99.90;;;;;;5046131;28;20051;-60
2022/07/26 00:12:22;;;;;;;5.65;2.35;;;18.60;99.90;;;;;;5046465;28;20498;-60
2022/07/26 00:14:48;;;;;;;6.82;2.03;;;18.60;99.90;;;;;;5046607;28;20091;-60
2022/07/26 00:17:13;;;;;;;11.30;2.67;;;18.60;99.90;;;;;;5045708;28;20045;-60
2022/07/26 00:19:39;;;;;;;4.32;1.83;;;18.60;99.90;;;;;;5046484;28;20055;-60
2022/07/26 00:24:49;;;;;;;7.05;1.67;;;18.60;99.90;;;;;;5045557;28;20052;-60
2022/07/26 00:27:15;;;;;;;8.70;2.03;;;18.60;99.90;;;;;;5046429;28;20047;-60
2022/07/26 00:29:40;;;;;;;7.68;1.98;;;18.60;99.90;;;;;;5046155;28;20037;-60
2022/07/26 00:32:06;;;;;;;4.65;2.05;;;18.60;99.90;;;;;;5045374;28;20136;-60
2022/07/26 00:34:31;;;;;;;4.95;1.55;;;18.60;99.90;;;;;;5046601;28;20040;-60
2022/07/26 00:36:57;;;;;;;5.30;2.40;;;18.60;99.90;;;;;;5046326;28;20045;-60
2022/07/26 00:39:23;;;;;;;6.15;2.63;;;18.60;99.90;;;;;;5045552;28;20040;-60
2022/07/26 00:41:49;;;;;;;5.75;2.10;;;18.70;99.90;;;;;;5045279;28;20049;-60
2022/07/26 00:44:15;;;;;;;5.55;1.67;;;18.60;99.90;;;;;;5046058;28;20080;-60
2022/07/26 00:46:42;;;;;;;4.18;2.05;;;18.60;99.90;;;;;;5045771;28;20057;-60
2022/07/26 00:49:09;;;;;;;8.27;2.55;;;18.60;99.90;;;;;;5045921;28;20041;-60
2022/07/26 00:51:35;;;;;;;3.08;1.77;;;18.60;99.90;;;;;;5045219;28;20040;-60
2022/07/26 00:54:01;;;;;;;5.18;2.63;;;18.60;99.90;;;;;;5046095;28;20040;-60
2022/07/26 00:56:27;;;;;;;4.28;1.77;;;18.60;99.90;;;;;;5046505;28;20049;-60
2022/07/26 00:58:52;;;;;;;3.78;1.55;;;18.60;99.90;;;;;;5044683;28;20049;-60
2022/07/26 01:01:18;;;;;;;5.90;2.15;;;18.60;99.90;;;;;;5046300;28;20057;-60
2022/07/26 01:03:43;;;;;;;5.88;2.00;;;18.60;99.90;;;;;;5045877;28;20048;-60
2022/07/26 01:06:09;;;;;;;4.25;1.70;;;18.50;99.90;;;;;;5045277;28;20072;-60
2022/07/26 01:08:35;;;;;;;8.15;2.50;;;18.60;99.90;;;;;;5045984;28;20037;-60
2022/07/26 01:11:01;;;;;;;1.70;1.50;;;18.60;99.90;;;;;;5045690;28;20044;-60
2022/07/26 01:13:26;;;;;;;2.80;2.10;;;18.50;99.90;;;;;;5045528;28;20037;-60
2022/07/26 01:15:52;;;;;;;4.65;1.80;;;18.50;99.90;;;;;;5045687;28;20051;-60
2022/07/26 01:18:18;;;;;;;3.38;1.80;;;18.50;99.90;;;;;;5045915;28;20060;-60
2022/07/26 01:20:44;;;;;;;4.68;2.00;;;18.50;99.90;;;;;;5044970;28;20047;-61
2022/07/26 01:23:10;;;;;;;4.95;2.33;;;18.50;99.90;;;;;;5045735;28;20044;-61
2022/07/26 01:25:37;;;;;;;4.18;1.60;;;18.50;99.90;;;;;;5045829;28;20095;-61
2022/07/26 01:28:03;;;;;;;14.27;2.10;;;18.40;99.90;;;;;;5044619;28;20045;-60
2022/07/26 01:30:29;;;;;;;5.70;2.05;;;18.40;99.90;;;;;;5045924;28;20389;-60
2022/07/26 01:32:55;;;;;;;4.70;1.85;;;18.40;99.90;;;;;;5045724;28;20086;-60
2022/07/26 01:35:21;;;;;;;3.55;1.70;;;18.40;99.90;;;;;;5044919;28;20048;-60
2022/07/26 01:37:47;;;;;;;5.90;1.58;;;18.40;99.90;;;;;;5045371;28;20045;-60
2022/07/26 01:40:13;;;;;;;6.05;2.05;;;18.40;99.90;;;;;;5045536;28;20084;-60
2022/07/26 01:42:39;;;;;;;6.00;1.85;;;18.50;99.90;;;;;;5044855;28;20339;-60
2022/07/26 01:45:10;;;;;;;3.75;1.95;;;18.40;99.90;;;;;;5045628;28;20052;-60
2022/07/26 01:47:36;;;;;;;4.20;1.60;;;18.40;99.90;;;;;;5045444;28;20045;-60
2022/07/26 01:50:04;;;;;;;3.85;2.00;;;18.40;99.90;;;;;;5045412;28;20091;-60
2022/07/26 01:52:30;;;;;;;3.58;1.58;;;18.40;99.90;;;;;;5045151;28;20052;-60
2022/07/26 01:54:55;;;;;;;4.03;2.15;;;18.30;99.90;;;;;;5047803;28;20614;-60
2022/07/26 01:57:21;;;;;;;3.08;1.98;;;18.30;99.90;;;;;;5048992;28;20049;-60
2022/07/26 01:59:46;;;;;;;5.40;1.90;;;18.30;99.90;;;;;;5048727;28;20095;-60
2022/07/26 02:02:12;;;;;;;6.30;1.98;;;18.30;99.90;;;;;;5048432;28;20055;-60
2022/07/26 02:07:22;;;;;;;2.55;1.70;;;18.30;99.90;;;;;;5048794;28;20076;-60
2022/07/26 02:09:47;;;;;;;6.22;1.88;;;18.40;99.90;;;;;;5047668;28;20359;-61
2022/07/26 02:12:13;;;;;;;3.80;2.08;;;18.40;99.90;;;;;;5048831;28;20036;-60
2022/07/26 02:14:39;;;;;;;3.53;2.08;;;18.40;99.90;;;;;;5048845;28;20069;-60
2022/07/26 02:17:05;;;;;;;5.55;1.80;;;18.30;99.90;;;;;;5048064;28;20438;-60
2022/07/26 02:19:30;;;;;;;1.58;1.02;;;18.30;99.90;;;;;;5048587;28;20133;-60
2022/07/26 02:21:56;;;;;;;1.95;1.10;;;18.20;99.90;;;;;;5048727;28;20131;-60
2022/07/26 02:24:22;;;;;;;2.95;1.10;;;18.20;99.90;;;;;;5047850;28;20037;-60
2022/07/26 02:26:48;;;;;;;4.43;1.35;;;18.10;99.90;;;;;;5048138;28;20057;-60
2022/07/26 02:29:13;;;;;;;3.58;0.98;;;18.00;99.90;;;;;;5048791;28;20044;-60
2022/07/26 02:31:39;;;;;;;6.45;1.67;;;17.90;99.90;;;;;;5047688;28;20099;-60
2022/07/26 02:34:05;;;;;;;3.53;1.25;;;17.90;99.90;;;;;;5048288;28;20389;-60
2022/07/26 02:36:30;;;;;;;2.40;1.27;;;18.10;99.90;;;;;;5048495;28;20419;-60
2022/07/26 02:38:56;;;;;;;3.40;1.55;;;17.80;99.90;;;;;;5047788;28;20175;-60
2022/07/26 02:41:21;;;;;;;2.70;1.40;;;17.80;99.90;;;;;;5048620;28;20049;-60
2022/07/26 02:43:47;;;;;;;5.25;1.38;;;17.80;99.90;;;;;;5048115;28;20124;-60
2022/07/26 02:46:13;;;;;;;4.80;1.35;;;17.70;99.90;;;;;;5047704;28;20045;-60
2022/07/26 02:48:38;;;;;;;6.15;1.98;;;17.70;99.90;;;;;;5048452;28;20044;-60
2022/07/26 02:51:04;;;;;;;11.20;2.75;;;17.70;99.90;;;;;;5047175;28;20492;-60
2022/07/26 02:53:30;;;;;;;5.72;2.15;;;17.70;99.90;;;;;;5048068;28;20053;-60
2022/07/26 02:55:55;;;;;;;5.95;1.95;;;17.70;99.90;;;;;;5048390;28;20048;-60
2022/07/26 02:58:21;;;;;;;5.85;1.38;;;17.70;99.90;;;;;;5047179;28;20057;-60
2022/07/26 03:00:47;;;;;;;7.53;1.70;;;17.60;99.90;;;;;;5047537;28;20123;-60
2022/07/26 03:03:13;;;;;;;6.07;1.55;;;17.60;99.90;;;;;;5047985;28;20119;-60
2022/07/26 03:05:38;;;;;;;9.52;1.67;;;17.70;99.90;;;;;;5045926;28;20037;-60
2022/07/26 03:08:05;;;;;;;4.85;1.33;;;17.60;99.90;;;;;;5047474;28;20496;-60
2022/07/26 03:10:31;;;;;;;3.58;1.10;;;17.60;99.90;;;;;;5047864;28;20126;-60
2022/07/26 03:12:57;;;;;;;15.30;2.33;;;17.60;99.90;;;;;;5047325;28;20107;-60
2022/07/26 03:15:22;;;;;;;4.68;1.30;;;17.60;99.90;;;;;;5048065;28;20124;-60
2022/07/26 03:17:48;;;;;;;7.68;1.50;;;17.60;99.90;;;;;;5047343;28;20642;-60
2022/07/26 03:20:15;;;;;;;4.07;1.23;;;17.50;99.90;;;;;;5046985;28;20045;-60
2022/07/26 03:22:41;;;;;;;19.90;1.85;;;17.60;99.90;;;;;;5047382;28;20053;-60
2022/07/26 03:25:07;;;;;;;6.10;1.10;;;17.50;99.90;;;;;;5047205;28;20117;-60
2022/07/26 03:27:33;;;;;;;8.82;1.98;;;17.50;99.90;;;;;;5047064;28;20049;-60
2022/07/26 03:29:59;;;;;;;4.55;1.25;;;17.50;99.90;;;;;;5047018;28;20052;-60
2022/07/26 03:32:25;;;;;;;4.63;1.17;;;17.50;99.90;;;;;;5047939;28;20045;-60
2022/07/26 03:34:51;;;;;;;4.22;1.17;;;17.50;99.90;;;;;;5046279;28;20053;-60
2022/07/26 03:37:17;;;;;;;4.15;1.05;;;17.60;99.90;;;;;;5047679;28;20051;-60
2022/07/26 03:39:43;;;;;;;7.05;1.08;;;17.50;99.90;;;;;;5047430;28;20132;-60
2022/07/26 03:42:09;;;;;;;7.85;1.23;;;17.50;99.90;;;;;;5046307;28;20135;-60
2022/07/26 03:44:34;;;;;;;2.28;0.85;;;17.50;99.90;;;;;;5047200;28;20037;-60
2022/07/26 03:47:00;;;;;;;7.38;1.33;;;17.50;99.90;;;;;;5046779;28;20128;-60
2022/07/26 03:49:26;;;;;;;4.63;1.20;;;17.40;99.90;;;;;;5046700;28;20500;-60
2022/07/26 03:51:54;;;;;;;4.88;1.10;;;17.40;99.90;;;;;;5046642;28;20056;-60
2022/07/26 03:54:19;;;;;;;2.75;1.17;;;17.40;99.90;;;;;;5046258;28;20111;-60
2022/07/26 03:56:45;;;;;;;5.15;1.30;;;17.30;99.90;;;;;;5046825;28;20496;-60
2022/07/26 03:59:11;;;;;;;6.13;1.13;;;17.30;99.90;;;;;;5047070;28;20376;-60
2022/07/26 04:01:41;;;;;;;5.70;1.17;;;17.30;99.90;;;;;;5045981;28;20044;-60
2022/07/26 04:04:11;;;;;;;4.70;1.00;;;17.30;99.90;;;;;;5046341;28;20510;-60
2022/07/26 04:06:37;;;;;;;3.10;1.02;;;17.30;99.90;;;;;;5046519;28;20586;-60
2022/07/26 04:09:04;;;;;;;2.65;1.05;;;17.30;99.90;;;;;;5045644;28;20103;-60
2022/07/26 04:11:30;;;;;;;2.03;0.75;;;17.30;99.90;;;;;;5046756;28;20049;-60
2022/07/26 04:13:56;;;;;;;2.50;0.60;;;17.30;99.90;;;;;;5047129;28;20087;-60
2022/07/26 04:16:22;;;;;;;4.45;1.00;;;17.30;99.90;;;;;;5045647;28;20527;-60
2022/07/26 04:18:48;;;;;;;8.93;0.73;;;17.30;99.90;;;;;;5046190;28;20044;-60
2022/07/26 04:21:13;;;;;;;6.20;0.85;;;17.30;99.90;;;;;;5046542;28;20112;-60
2022/07/26 04:23:39;;;;;;;3.75;0.70;;;17.20;99.90;;;;;;5046012;28;20107;-60
2022/07/26 04:26:05;;;;;;;4.60;0.98;;;17.10;99.90;;;;;;5046006;28;20052;-60
2022/07/26 04:28:31;;;;;;;1.73;0.40;;;17.10;99.90;;;;;;5046503;28;20128;-60
2022/07/26 04:30:58;;;;;;;2.83;0.80;;;17.10;99.90;;;;;;5045935;28;20052;-60
2022/07/26 04:33:24;;;;;;;2.30;0.98;;;17.10;99.90;;;;;;5046451;28;20033;-60
2022/07/26 04:35:50;;;;;;;7.00;1.48;;;17.10;99.90;;;;;;5045891;28;20602;-60
2022/07/26 04:38:16;;;;;;;2.80;0.70;;;17.10;99.90;;;;;;5045732;28;20128;-60
2022/07/26 04:40:42;;;;;;;10.45;1.60;;;17.10;99.90;;;;;;5046470;28;20159;-60
2022/07/26 04:43:08;;;;;;;4.13;1.05;;;17.00;99.90;;;;;;5046663;28;20124;-60
2022/07/26 04:45:34;;;;;;;2.50;0.90;;;17.10;99.90;;;;;;5045602;28;20045;-60
2022/07/26 04:47:59;;;;;;;3.63;0.88;;;17.10;99.90;;;;;;5045641;28;20102;-60
2022/07/26 04:50:26;;;;;;;4.90;0.88;;;17.10;99.90;;;;;;5046935;28;20039;-60
2022/07/26 04:52:53;;;;;;;4.85;1.15;;;17.10;99.90;;;;;;5045532;28;20094;-60
2022/07/26 04:55:19;;;;;;;2.95;1.05;;;17.10;99.90;;;;;;5046169;28;20049;-60
2022/07/26 04:57:45;;;;;;;3.33;0.63;;;17.10;99.90;;;;;;5045068;28;20099;-60
2022/07/26 05:00:13;;;;;;;10.05;1.38;;;17.10;99.90;;;;;;5046045;28;20053;-60
2022/07/26 05:02:39;;;;;;;6.50;1.10;;;17.10;99.90;;;;;;5045893;28;20500;-60
2022/07/26 05:05:06;;;;;;;8.48;1.08;;;17.10;99.90;;;;;;5044693;28;20052;-60
2022/07/26 05:07:42;;;;;;;2.47;0.68;;;17.10;99.90;;;;;;5045899;28;20060;-60
2022/07/26 05:10:08;;;;;;;5.80;1.15;;;17.10;99.90;;;;;;5045728;28;20135;-60
2022/07/26 05:12:34;;;;;;;4.72;1.05;;;17.00;99.90;;;;;;5045265;28;20044;-60
2022/07/26 05:15:00;;;;;;;2.70;0.90;;;16.90;99.90;;;;;;5045633;28;20049;-60
2022/07/26 05:17:26;;;;;;;8.07;1.38;;;17.00;99.90;;;;;;5046406;28;20118;-60
2022/07/26 05:19:51;;;;;;;3.17;0.95;;;16.80;99.90;;;;;;5045091;28;20041;-60
2022/07/26 05:22:17;;;;;;;3.67;1.13;;;16.80;99.90;;;;;;5046260;28;20547;-60
2022/07/26 05:24:43;;;;;;;2.78;0.75;;;16.80;99.90;;;;;;5045925;28;20041;-60
2022/07/26 05:27:08;;;;;;;1.67;0.30;;;16.70;99.90;;;;;;5045186;28;20053;-60
2022/07/26 05:29:34;;;;;;;3.13;0.70;;;16.70;99.90;;;;;;5048159;28;20396;-60
2022/07/26 05:31:59;;;;;;;2.05;0.90;;;16.80;99.90;;;;;;5049760;28;20041;-60
2022/07/26 05:34:25;;;;;;;3.92;0.57;;;16.80;99.90;;;;;;5049470;28;20127;-60
2022/07/26 05:36:50;;;;;;;4.55;1.45;;;16.90;99.90;;;;;;5049509;28;20045;-60
2022/07/26 05:39:16;;;;;;;3.05;0.82;;;16.80;99.90;;;;;;5049759;28;20048;-60
2022/07/26 05:41:42;;;;;;;2.30;0.85;;;16.80;99.90;;;;;;5048725;28;20048;-60
2022/07/26 05:44:08;;;;;;;6.55;1.42;;;16.70;99.90;;;;;;5049112;28;20148;-60
2022/07/26 05:46:36;;;;;;;4.15;0.55;;;17.10;99.90;;;;;;5049581;28;20094;-60
2022/07/26 05:49:03;;;;;;;2.67;0.63;;;16.80;99.90;;;;;;5048429;28;20041;-60
2022/07/26 05:51:29;;;;;;;3.38;0.68;;;16.90;99.90;;;;;;5049630;28;20077;-60
2022/07/26 05:53:55;;;;;;;4.93;1.10;;;16.90;99.90;;;;;;5048937;28;20045;-60
2022/07/26 05:56:21;;;;;;;1.70;0.50;;;17.00;99.90;;;;;;5049101;28;20587;-60
2022/07/26 05:58:47;;;;;;;2.35;0.75;;;17.00;99.90;;;;;;5048479;28;20136;-60
2022/07/26 06:01:12;;;;;;;5.97;0.52;;;17.00;99.90;;;;;;5048747;28;20053;-60
2022/07/26 06:03:38;;;;;;;3.55;0.70;;;17.10;99.90;;;;;;5049370;28;20455;-60
2022/07/26 06:06:04;;;;;;;6.45;1.13;;;17.10;99.90;;;;;;5048815;28;20037;-60
2022/07/26 06:08:30;;;;;;;3.22;0.70;;;17.10;99.90;;;;;;5048416;28;20037;-60
2022/07/26 06:10:56;;;;;;;7.15;0.80;;;17.10;99.90;;;;;;5049073;28;20085;-61
2022/07/26 06:13:22;;;;;;;4.32;0.73;;;17.20;99.90;;;;;;5049098;28;20127;-60
2022/07/26 06:15:48;;;;;;;6.28;0.77;;;17.10;99.90;;;;;;5048106;28;20158;-60
2022/07/26 06:18:14;;;;;;;3.70;1.05;;;17.10;99.90;;;;;;5049076;28;20465;-60
2022/07/26 06:20:41;;;;;;;4.75;0.98;;;17.10;99.90;;;;;;5049032;28;20067;-60
2022/07/26 06:23:07;;;;;;;4.25;0.98;;;17.00;99.90;;;;;;5047653;28;20410;-60
2022/07/26 06:25:33;;;;;;;5.35;0.98;;;17.00;99.90;;;;;;5047648;28;20177;-60
2022/07/26 06:28:04;;;;;;;4.18;0.80;;;17.00;99.90;;;;;;5048586;28;20420;-60
2022/07/26 06:30:30;;;;;;;3.57;0.73;;;17.00;99.90;;;;;;5047918;28;20566;-60
2022/07/26 06:32:56;;;;;;;5.55;1.23;;;17.00;99.90;;;;;;5048998;28;20310;-60
2022/07/26 06:35:23;;;;;;;3.05;0.80;;;17.10;99.90;;;;;;5048384;28;20587;-60
2022/07/26 06:37:49;;;;;;;2.17;0.70;;;17.20;99.90;;;;;;5047662;28;20048;-60
2022/07/26 06:40:15;;;;;;;5.72;1.05;;;17.20;99.90;;;;;;5048386;28;20091;-60
2022/07/26 06:42:41;;;;;;;2.80;0.73;;;17.30;99.90;;;;;;5048394;28;20041;-60
2022/07/26 06:45:07;;;;;;;6.40;1.15;;;17.40;99.90;;;;;;5047536;28;20508;-60
2022/07/26 06:47:34;;;;;;;2.97;0.63;;;17.40;99.90;;;;;;5048224;28;20114;-60
2022/07/26 06:50:00;;;;;;;5.63;1.05;;;17.30;99.90;;;;;;5047971;28;20037;-60
2022/07/26 06:52:26;;;;;;;1.02;0.40;;;17.30;99.90;;;;;;5048393;28;20060;-60
2022/07/26 06:54:51;;;;;;;3.72;0.65;;;17.20;99.90;;;;;;5047859;28;20037;-60
2022/07/26 06:57:17;;;;;;;4.80;1.15;;;17.20;99.90;;;;;;5047256;28;20092;-60
2022/07/26 06:59:42;;;;;;;4.25;0.85;;;17.30;99.90;;;;;;5048098;28;20048;-60
2022/07/26 07:02:08;;;;;;;4.22;0.82;;;17.30;99.90;;;;;;5047848;28;20083;-60
2022/07/26 07:04:34;;;;;;;2.88;0.73;;;17.40;99.90;;;;;;5047293;28;20128;-60
2022/07/26 07:07:04;;;;;;;5.22;0.70;;;17.40;99.90;;;;;;5047444;28;20041;-60
2022/07/26 07:09:31;;;;;;;3.78;0.95;;;17.40;99.90;;;;;;5048006;28;20037;-60
2022/07/26 07:11:57;;;;;;;4.03;0.65;;;17.40;99.90;;;;;;5047310;28;20072;-60
2022/07/26 07:14:23;;;;;;;3.17;1.08;;;17.40;99.90;;;;;;5047864;28;20049;-60
2022/07/26 07:16:48;;;;;;;4.47;0.88;;;17.50;99.90;;;;;;5047732;28;20052;-59
2022/07/26 07:19:14;;;;;;;5.40;1.45;;;17.60;99.90;;;;;;5047164;28;20051;-60
2022/07/26 07:21:40;;;;;;;6.40;1.67;;;17.60;99.90;;;;;;5048133;28;20098;-60
2022/07/26 07:24:05;;;;;;;4.88;1.20;;;17.70;99.90;;;;;;5047394;28;20478;-60
2022/07/26 07:26:31;;;;;;;4.15;1.13;;;17.80;99.90;;;;;;5046876;28;20178;-60
2022/07/26 07:28:57;;;;;;;2.42;0.95;;;17.80;99.90;;;;;;5047710;28;20400;-60
2022/07/26 07:31:24;;;;;;;3.90;0.82;;;17.90;99.90;;;;;;5047631;28;20045;-60
2022/07/26 07:33:50;;;;;;;3.33;0.82;;;17.90;99.90;;;;;;5046377;28;20045;-59
2022/07/26 07:36:15;;;;;;;8.27;1.35;;;17.80;99.90;;;;;;5047487;28;20037;-60
2022/07/26 07:38:43;;;;;;;4.90;0.93;;;17.80;99.90;;;;;;5047281;28;20029;-60
2022/07/26 07:41:08;;;;;;;3.83;1.20;;;17.70;99.90;;;;;;5046408;28;20049;-60
2022/07/26 07:43:34;;;;;;;5.57;1.00;;;17.60;99.90;;;;;;5047114;28;20047;-60
2022/07/26 07:45:59;;;;;;;6.00;1.35;;;17.60;99.90;;;;;;5047011;28;20238;-60
2022/07/26 07:48:25;;;;;;;3.80;0.95;;;17.60;99.90;;;;;;5046705;28;20435;-60
2022/07/26 07:50:50;;;;;;;6.20;1.10;;;17.50;99.90;;;;;;5046355;28;20052;-60
2022/07/26 07:53:16;;;;;;;7.72;1.13;;;17.50;99.90;;;;;;5046593;28;20045;-60
2022/07/26 07:55:42;;;;;;;4.03;0.95;;;17.70;99.90;;;;;;5046208;28;20067;-60
2022/07/26 07:58:07;;;;;;;7.35;1.40;;;17.60;99.90;;;;;;5045050;28;20057;-60
2022/07/26 08:00:33;;;;;;;6.53;1.13;;;17.60;99.90;;;;;;5046347;28;20053;-60
2022/07/26 08:02:59;;;;;;;6.35;1.38;;;17.60;99.90;;;;;;5046678;28;20114;-60
2022/07/26 08:05:24;;;;;;;5.25;1.13;;;17.70;99.90;;;;;;5047101;28;20456;-60
2022/07/26 08:07:50;;;;;;;3.95;1.23;;;17.80;99.90;;;;;;5045857;28;20052;-60
2022/07/26 08:10:16;;;;;;;6.88;1.00;;;18.00;99.90;;;;;;5046750;28;20055;-60
2022/07/26 08:12:41;;;;;;;5.43;1.17;;;18.10;99.90;;;;;;5046878;28;20060;-60
2022/07/26 08:15:08;;;;;;;5.47;1.08;;;18.10;99.90;;;;;;5046293;28;20048;-60
2022/07/26 08:17:35;;;;;;;6.32;1.17;;;18.10;99.90;;;;;;5046740;28;20064;-60
2022/07/26 08:20:01;;;;;;;6.75;1.35;;;18.20;99.90;;;;;;5046214;28;20056;-60
2022/07/26 08:22:27;;;;;;;5.47;1.20;;;18.10;99.90;;;;;;5046480;28;20033;-61
2022/07/26 08:24:52;;;;;;;5.28;1.10;;;18.20;99.90;;;;;;5046492;28;20043;-60
2022/07/26 08:27:18;;;;;;;5.03;1.52;;;18.20;99.90;;;;;;5061941;28;20056;-60
2022/07/26 08:29:44;;;;;;;2.47;0.93;;;18.20;99.90;;;;;;5045990;28;20079;-60
2022/07/26 08:32:09;;;;;;;7.75;1.45;;;18.40;99.90;;;;;;5046210;28;20518;-60
2022/07/26 08:34:35;;;;;;;6.63;1.40;;;18.30;99.90;;;;;;5046567;28;20037;-60
2022/07/26 08:37:00;;;;;;;4.25;1.00;;;18.30;99.90;;;;;;5045250;28;20458;-60
2022/07/26 08:39:26;;;;;;;8.40;1.83;;;18.30;99.90;;;;;;5047121;28;20559;-60
2022/07/26 08:41:52;;;;;;;6.28;1.30;;;18.40;99.90;;;;;;5046441;28;20080;-60
2022/07/26 08:44:18;;;;;;;6.90;1.52;;;18.40;99.90;;;;;;5045441;28;20488;-60
2022/07/26 08:46:43;;;;;;;15.07;2.13;;;18.20;99.90;;;;;;5046423;28;20040;-60
2022/07/26 08:49:11;;;;;;;7.97;1.52;;;18.30;99.90;;;;;;5046139;28;20037;-60
2022/07/26 08:51:39;;;;;;;6.75;1.90;;;18.20;99.90;;;;;;5045598;28;20069;-60
2022/07/26 08:54:05;;;;;;;7.65;2.30;;;18.10;99.90;;;;;;5045723;28;20536;-60
2022/07/26 08:56:35;;;;;;;9.52;2.47;;;18.10;99.90;;;;;;5046389;28;20129;-60
2022/07/26 08:59:15;;;;;;;8.07;1.33;;;18.10;99.90;;;;;;5045811;28;20182;-61
2022/07/26 09:02:02;;;;;;;8.23;1.52;;;18.10;99.90;;;;;;5046131;28;20095;-61
2022/07/26 09:04:34;;;;;;;11.27;2.85;;;18.20;99.90;;;;;;5048298;28;20060;-61
2022/07/26 09:07:10;;;;;;;8.98;2.45;;;18.20;99.90;;;;;;5049937;28;20361;-61
2022/07/26 09:09:38;;;;;;;8.52;1.88;;;18.10;99.90;;;;;;5050147;28;20538;-61
2022/07/26 09:12:16;;;;;;;6.55;2.40;;;18.10;99.90;;;;;;5049201;28;20553;-61
2022/07/26 09:14:42;;;;;;;9.98;3.00;;;18.10;99.90;;;;;;5050303;28;20076;-61
2022/07/26 09:17:07;;;;;;;7.22;2.53;;;18.10;99.90;;;;;;5049735;28;20061;-61
2022/07/26 09:19:33;;;;;;;4.78;2.03;;;18.20;99.90;;;;;;5049949;28;20514;-62
2022/07/26 09:22:07;;;;;;;8.27;2.10;;;18.20;99.90;;;;;;5049781;28;20491;-65
2022/07/26 09:24:41;;;;;;;6.13;1.95;;;18.20;99.90;;;;;;5050174;28;20041;-62
2022/07/26 09:27:09;;;;;;;10.45;2.70;;;18.20;99.90;;;;;;5048787;28;20102;-62
2022/07/26 09:30:05;;;;;;;6.72;2.13;;;18.20;99.90;;;;;;5049939;28;20708;-62
2022/07/26 09:32:31;;;;;;;10.13;2.80;;;18.10;99.90;;;;;;5048534;28;20467;-62
2022/07/26 09:35:10;;;;;;;9.75;2.67;;;18.00;99.90;;;;;;5050337;28;20084;-62
2022/07/26 09:37:42;;;;;;;5.50;1.92;;;18.00;99.90;;;;;;5049675;28;20081;-62
2022/07/26 09:40:13;;;;;;;6.03;1.77;;;18.10;99.90;;;;;;5049258;28;20053;-62
2022/07/26 09:43:00;;;;;;;7.35;2.30;;;18.10;99.90;;;;;;5049756;28;20642;-62
2022/07/26 09:45:27;;;;;;;7.50;2.30;;;18.20;99.90;;;;;;5050146;28;20151;-62
2022/07/26 09:47:53;;;;;;;5.20;1.70;;;18.20;99.90;;;;;;5048529;28;20049;-62
2022/07/26 09:50:22;;;;;;;4.97;2.05;;;18.30;99.90;;;;;;5050036;28;20144;-62
2022/07/26 09:53:01;;;;;;;4.22;1.58;;;18.40;99.90;;;;;;5049279;28;20052;-62
2022/07/26 09:55:27;;;;;;;5.80;1.33;;;18.40;99.90;;;;;;5049968;28;20049;-60
2022/07/26 09:57:53;;;;;;;8.63;1.60;;;18.50;99.90;;;;;;5048707;28;20053;-60
2022/07/26 10:00:20;;;;;;;8.25;1.48;;;18.60;99.90;;;;;;5047772;28;20504;-60
2022/07/26 10:02:45;;;;;;;8.00;1.80;;;18.60;99.90;;;;;;5048433;28;20037;-60
2022/07/26 10:05:11;;;;;;;4.50;1.30;;;18.60;99.90;;;;;;5048297;28;20049;-60
2022/07/26 10:07:37;;;;;;;7.35;1.40;;;18.80;99.90;;;;;;5047733;28;20076;-61
2022/07/26 10:10:28;;;;;;;6.47;1.58;;;18.80;99.90;;;;;;5048113;28;20048;-61
2022/07/26 10:12:54;;;;;;;15.52;1.77;;;18.80;99.90;;;;;;5037801;28;20051;-60
2022/07/26 10:15:34;;;;;;;5.65;1.95;;;18.90;99.90;;;;;;5047370;28;20041;-60
2022/07/26 10:18:00;;;;;;;8.50;2.17;;;18.90;99.90;;;;;;5048026;28;20049;-60
2022/07/26 10:20:46;;;;;;;11.35;1.92;;;18.90;99.90;;;;;;5048520;28;20510;-60
2022/07/26 10:23:55;;;;;;;15.63;2.53;;;18.90;99.90;;;;;;5047488;28;20127;-60
2022/07/26 10:26:30;;;;;;;6.95;1.48;;;19.00;99.90;;;;;;5050960;28;20569;-61
2022/07/26 10:29:15;;;;;;;4.43;1.52;;;19.10;99.90;;;;;;5056709;28;20105;-61
2022/07/26 10:31:48;;;;;;;7.13;1.23;;;19.20;99.90;;;;;;5056833;28;20049;-61
2022/07/26 10:34:34;;;;;;;4.78;1.13;;;19.20;99.90;;;;;;5054655;28;20504;-61
2022/07/26 10:37:02;;;;;;;2.70;1.20;;;19.40;99.90;;;;;;5047018;28;20044;-61
2022/07/26 10:39:28;;;;;;;5.40;1.80;;;19.50;99.90;;;;;;5048237;28;20443;-61
2022/07/26 10:42:04;;;;;;;6.47;1.35;;;19.60;99.90;;;;;;5046582;28;20040;-61
2022/07/26 10:44:40;;;;;;;8.25;1.35;;;19.50;99.90;;;;;;5046804;28;20102;-61
2022/07/26 10:47:06;;;;;;;3.53;1.33;;;19.60;99.90;;;;;;5047173;28;20071;-60
2022/07/26 10:49:58;;;;;;;5.95;1.23;;;19.60;99.90;;;;;;5049880;28;20541;-61
2022/07/26 10:52:31;;;;;;;5.22;0.98;;;19.80;99.90;;;;;;5052542;28;20218;-61
2022/07/26 10:54:59;;;;;;;5.72;1.10;;;19.90;99.90;;;;;;5047478;28;20132;-61
2022/07/26 10:57:40;;;;;;;4.53;1.08;;;19.90;99.90;;;;;;5010853;28;1046369;-61
2022/07/26 11:00:19;;;;;;;3.45;0.93;;;20.10;99.90;;;;;;5047982;28;20056;-61
2022/07/26 11:02:51;;;;;;;2.65;0.95;;;20.20;99.90;;;;;;5048002;28;20088;-61
2022/07/26 11:05:18;;;;;;;4.10;1.10;;;20.30;99.90;;;;;;5047664;28;20055;-61
2022/07/26 11:08:06;;;;;;;4.55;1.08;;;20.50;99.90;;;;;;5047893;28;20517;-61
2022/07/26 11:10:41;;;;;;;3.78;0.90;;;20.40;99.90;;;;;;5047302;28;20041;-60
2022/07/26 11:13:16;;;;;;;4.45;1.23;;;20.40;99.90;;;;;;5047816;28;20132;-60
2022/07/26 11:15:48;;;;;;;3.50;1.08;;;20.50;99.90;;;;;;5048264;28;20094;-61
2022/07/26 11:18:27;;;;;;;8.35;2.00;;;20.40;99.90;;;;;;5047194;28;20045;-61
2022/07/26 11:20:57;;;;;;;4.82;1.45;;;20.40;99.90;;;;;;5047470;28;20037;-61
2022/07/26 11:23:24;;;;;;;3.88;0.80;;;20.40;99.90;;;;;;5047860;28;20041;-61
2022/07/26 11:26:09;;;;;;;3.67;1.02;;;20.30;99.90;;;;;;5045854;28;20049;-61
2022/07/26 11:28:52;;;;;;;2.60;0.93;;;20.30;99.90;;;;;;5047769;28;20037;-61
2022/07/26 11:31:19;;;;;;;4.40;1.25;;;20.30;99.90;;;;;;5047672;28;20049;-61
2022/07/26 11:33:49;;;;;;;6.05;1.20;;;20.20;99.90;;;;;;5047070;28;20087;-61
2022/07/26 11:36:17;;;;;;;4.05;1.05;;;20.20;99.90;;;;;;5047563;28;20116;-61
2022/07/26 11:38:47;;;;;;;3.78;0.88;;;20.20;99.90;;;;;;5046721;28;20041;-61
2022/07/26 11:41:17;;;;;;;3.42;1.02;;;20.10;99.90;;;;;;5047559;28;20124;-61
2022/07/26 11:43:43;;;;;;;5.80;1.05;;;20.00;99.90;;;;;;5046170;28;20098;-61
2022/07/26 11:46:09;;;;;;;4.57;1.02;;;19.90;99.90;;;;;;5046427;28;20064;-61
2022/07/26 11:48:34;;;;;;;4.78;0.80;;;19.90;99.90;;;;;;5047227;28;20094;-61
2022/07/26 11:51:10;;;;;;;5.78;1.02;;;20.00;99.90;;;;;;5046842;28;20049;-61
2022/07/26 11:53:37;;;;;;;3.42;1.00;;;20.10;99.90;;;;;;5045014;28;20067;-61
2022/07/26 11:56:21;;;;;;;3.25;1.15;;;20.30;99.90;;;;;;5046545;28;20052;-61
2022/07/26 11:58:49;;;;;;;3.70;1.13;;;20.40;99.90;;;;;;5046389;28;20492;-61
2022/07/26 12:01:17;;;;;;;1.13;0.75;;;20.40;99.90;;;;;;5046215;28;20462;-61
2022/07/26 12:03:45;;;;;;;3.15;0.82;;;20.50;99.90;;;;;;5047051;28;20060;-61
2022/07/26 12:06:15;;;;;;;8.02;1.10;;;20.50;99.90;;;;;;5046845;28;20325;-61
2022/07/26 12:08:48;;;;;;;4.07;0.98;;;20.50;99.90;;;;;;5046394;28;20060;-61
2022/07/26 12:11:15;;;;;;;3.72;1.20;;;20.40;99.90;;;;;;5046890;28;20123;-61
2022/07/26 12:13:57;;;;;;;4.18;0.95;;;20.30;99.90;;;;;;5046329;28;20098;-61
2022/07/26 12:16:56;;;;;;;0.98;0.57;;;20.30;99.90;;;;;;5046900;28;20057;-61
2022/07/26 12:19:24;;;;;;;4.00;1.17;;;20.20;99.90;;;;;;5034550;28;20067;-61
2022/07/26 12:21:53;;;;;;;3.38;0.90;;;20.20;99.90;;;;;;5045787;28;20411;-61
2022/07/26 12:24:37;;;;;;;1.80;0.90;;;20.30;99.90;;;;;;5046556;28;20060;-61
2022/07/26 12:27:05;;;;;;;2.85;1.02;;;20.30;99.90;;;;;;5046296;28;20065;-61
2022/07/26 12:29:35;;;;;;;3.88;0.75;;;20.30;99.90;;;;;;5046094;28;20064;-61
2022/07/26 12:32:13;;;;;;;2.67;1.08;;;20.20;99.90;;;;;;5046197;28;20447;-61
2022/07/26 12:34:41;;;;;;;3.35;0.98;;;20.20;99.90;;;;;;5046422;28;20045;-61
2022/07/26 12:37:11;;;;;;;6.13;1.02;;;20.20;99.90;;;;;;5044537;28;20087;-61
2022/07/26 12:39:37;;;;;;;3.65;1.08;;;20.20;99.90;;;;;;5046547;28;20044;-61
2022/07/26 12:42:26;;;;;;;6.75;1.20;;;20.30;99.90;;;;;;5045533;28;20166;-60
2022/07/26 12:44:52;;;;;;;5.55;1.70;;;20.30;99.90;;;;;;5046047;28;20463;-60
2022/07/26 12:47:18;;;;;;;2.78;1.30;;;20.40;99.90;;;;;;5046197;28;20037;-60
2022/07/26 12:49:45;;;;;;;7.75;1.95;;;20.50;99.90;;;;;;5045850;28;20377;-60
2022/07/26 12:52:16;;;;;;;7.78;1.48;;;20.50;99.90;;;;;;5046481;28;20044;-61
2022/07/26 12:54:44;;;;;;;5.28;1.50;;;20.40;99.90;;;;;;5046434;28;20041;-61